Terminal Aerodrome Forecast
Issued by NWS

Home | Current Version | Previous Version | Text Only | Print | Product List | Glossary On
Versions: 1 2 3 4 5 6 7 8 9 10 11 12 13 14 15 16 17 18 19 20 21 22
000
FTUS41 KCAR 171100
TAFHUL
TAF
KHUL 171128Z 1712/1812 00000KT 6SM BR SCT002
     FM171230 28005KT P6SM BKN040
     FM172100 34004KT P6SM BKN050
     FM180900 21007KT 6SM BR BKN004=

USA.gov is the U.S. government's official web portal to all federal, state and local government web resources and services.